Date,TemperatureHighF,TemperatureAvgF,TemperatureLowF,DewpointHighF,DewpointAvgF,DewpointLowF,HumidityHigh,HumidityAvg,HumidityLow,PressureMaxIn,PressureMinIn,WindSpeedMaxMPH,WindSpeedAvgMPH,GustSpeedMaxMPH,PrecipitationSumIn
2013-1-1,31.8,30.4,28.9,31.0,30.0,28.0,99,98,96,30.50,30.37,0,0,0,0.00
2013-1-2,38.5,28.7,24.0,37.0,28.3,24.0,99,98,92,30.37,30.21,0,0,0,0.00
2013-1-3,37.5,28.8,20.3,36.0,27.2,20.0,99,94,82,30.21,30.14,2,0,7,0.12
2013-1-4,44.8,39.8,37.6,43.0,38.9,36.0,99,96,92,30.35,30.18,5,0,12,0.08
2013-1-5,39.6,36.8,33.6,38.0,35.3,33.0,99,94,84,30.21,30.14,0,0,3,0.03
2013-1-6,42.0,37.8,33.0,40.0,36.9,33.0,99,96,90,30.24,30.02,3,0,6,0.12
2013-1-7,48.4,44.0,40.0,48.0,43.7,40.0,99,98,92,30.20,29.94,4,0,9,0.42
2013-1-8,49.4,45.7,40.9,49.0,45.4,41.0,100,99,96,30.20,29.81,7,1,13,0.44
2013-1-9,48.9,39.0,31.2,47.0,38.1,31.0,99,96,88,29.98,29.70,8,0,14,0.69
2013-1-10,36.5,33.3,31.0,35.0,33.0,31.0,99,98,94,30.12,29.98,1,0,4,0.02
2013-1-11,36.9,28.9,22.3,32.0,26.8,22.0,99,92,60,30.33,30.12,3,0,7,0.00
2013-1-12,35.7,25.4,19.1,29.0,23.8,18.0,98,93,76,30.45,30.33,3,0,8,0.00
2013-1-13,34.0,23.5,16.2,28.0,21.5,15.0,98,92,70,30.51,30.45,2,0,5,0.00
2013-1-14,31.6,27.8,20.3,31.0,27.2,20.0,98,97,96,30.58,30.50,0,0,5,0.00
2013-1-15,37.2,31.6,29.3,36.0,31.1,29.0,99,98,94,30.70,30.58,2,0,5,0.09
2013-1-16,32.1,30.4,29.3,32.0,30.2,29.0,99,99,99,30.68,30.52,2,0,5,0.00
2013-1-17,32.6,29.8,27.8,32.0,29.6,28.0,99,99,98,30.53,30.32,0,0,2,0.00
2013-1-18,45.7,31.1,24.0,42.0,30.7,24.0,100,98,82,30.33,30.27,2,0,6,0.01
2013-1-19,32.1,30.3,28.4,32.0,30.1,28.0,99,99,98,30.38,30.32,3,0,6,0.00
2013-1-20,31.6,29.9,27.6,31.0,29.7,27.0,99,99,98,30.40,30.28,3,0,5,0.00
2013-1-21,41.7,29.2,24.6,38.0,28.6,24.0,99,97,86,30.29,30.15,0,0,3,0.00
2013-1-22,38.8,29.3,21.6,32.0,27.2,21.0,99,92,72,30.16,29.94,1,0,4,0.00
2013-1-23,35.1,34.0,32.9,35.0,32.3,29.0,99,94,83,30.20,29.90,2,0,6,0.17
2013-1-24,42.7,37.2,32.5,41.0,36.8,32.0,99,98,89,30.24,30.09,1,0,4,0.06
2013-1-25,50.6,41.7,32.9,47.0,40.9,32.0,99,97,86,30.10,29.95,2,0,7,0.03
2013-1-26,44.4,39.0,32.5,43.0,38.6,32.0,99,98,88,30.07,29.91,4,0,7,0.26
2013-1-27,39.7,37.0,33.4,39.0,36.7,33.0,99,99,96,30.12,30.04,2,0,8,0.09
2013-1-28,41.3,39.0,35.4,41.0,38.6,35.0,99,98,95,30.18,30.07,5,0,13,0.50
2013-1-29,47.5,43.4,39.6,46.0,42.9,39.0,100,97,88,30.43,30.18,4,0,9,0.18
2013-1-30,46.7,44.4,42.6,47.0,44.3,42.0,100,99,99,30.43,30.38,0,0,2,0.49
2013-1-31,46.4,43.8,39.7,46.0,43.7,40.0,100,99,97,30.45,30.34,1,0,4,0.05
2013-2-1,51.6,43.8,39.7,45.0,42.6,39.0,100,96,78,30.40,30.32,5,0,7,0.00
2013-2-2,48.4,39.2,30.3,45.0,38.2,30.0,99,96,84,30.36,30.26,3,0,5,0.00
2013-2-3,44.9,39.0,30.7,44.0,38.6,31.0,100,98,94,30.34,30.25,0,0,3,0.00
2013-2-4,50.8,43.8,38.9,44.0,41.8,38.0,99,93,75,30.24,29.93,3,0,4,0.00
2013-2-5,50.4,43.5,39.7,46.0,42.2,40.0,99,95,82,30.01,29.88,4,0,10,0.37
2013-2-6,45.9,42.5,39.9,44.0,41.6,40.0,99,96,89,30.08,29.81,3,0,11,0.34
2013-2-7,47.8,38.2,28.3,40.0,35.9,28.0,99,92,63,30.20,29.86,7,0,8,0.02
2013-2-8,44.4,36.4,27.2,38.0,34.0,27.0,99,91,73,30.32,30.20,7,0,9,0.00
2013-2-9,47.6,37.9,29.0,41.0,35.9,29.0,99,93,74,30.33,30.27,2,0,3,0.00
2013-2-10,44.6,40.9,38.7,39.0,37.8,37.0,97,89,74,30.38,30.33,4,0,7,0.00
2013-2-11,45.0,40.8,37.6,44.0,39.8,37.0,99,96,91,30.39,30.34,2,0,3,0.04
2013-2-12,50.6,45.4,41.2,47.0,43.7,41.0,99,94,82,30.45,30.38,6,0,8,0.00
2013-2-13,48.8,43.5,32.6,44.0,40.6,32.0,99,89,74,30.53,30.39,2,0,6,0.01
2013-2-14,45.9,39.9,31.2,45.0,39.5,31.0,99,98,95,30.58,30.53,0,0,4,0.01
2013-2-15,55.7,44.3,34.1,47.0,42.2,34.0,99,93,71,30.55,30.20,6,0,8,0.00
2013-2-16,49.0,41.3,34.0,46.0,39.4,33.0,99,93,71,30.27,30.21,7,1,15,0.08
2013-2-17,44.1,36.1,29.6,40.0,35.2,29.0,99,97,85,30.29,30.13,4,0,4,0.04
2013-2-18,44.4,37.8,32.3,39.0,35.4,32.0,99,91,75,30.12,29.76,5,0,9,0.05
2013-2-19,50.1,39.9,29.1,40.0,36.2,29.0,99,88,59,30.02,29.73,8,1,13,0.01
2013-2-20,44.1,36.1,27.6,40.0,34.9,27.0,99,95,79,30.09,30.01,6,0,8,0.08
2013-2-21,42.0,39.2,35.9,41.0,38.7,36.0,99,98,94,30.15,30.05,4,0,9,0.11
2013-2-22,43.8,39.5,32.6,43.0,38.8,32.0,99,97,89,30.13,29.83,5,1,16,1.02
2013-2-23,44.8,37.6,33.4,40.0,36.0,33.0,99,94,75,30.43,30.02,6,0,21,0.28
2013-2-24,47.2,40.6,34.9,40.0,36.7,34.0,98,87,72,30.44,30.00,6,0,15,0.00
2013-2-25,45.2,39.1,32.0,41.0,37.2,32.0,99,93,78,30.37,29.97,8,1,24,0.38
2013-2-26,46.5,38.0,29.4,40.0,34.9,29.0,99,89,69,30.39,30.24,4,0,8,0.01
2013-2-27,48.4,42.9,39.3,44.0,41.2,37.0,99,93,83,30.32,30.25,3,0,6,0.10
2013-2-28,51.7,47.6,42.3,51.0,47.3,42.0,99,98,94,30.39,30.19,4,0,8,0.28
2013-3-1,56.5,51.3,48.2,53.0,50.2,48.0,99,96,86,30.43,30.31,4,0,8,0.05
2013-3-2,54.7,45.5,35.1,50.0,44.1,34.0,99,94,83,30.32,30.14,5,0,20,0.06
2013-3-3,50.2,36.8,28.0,38.0,32.8,28.0,99,87,57,30.32,30.27,8,1,13,0.01
2013-3-4,56.6,36.2,25.6,37.0,29.5,23.0,99,82,29,30.30,29.93,6,0,9,0.00
2013-3-5,45.4,38.1,28.1,42.0,36.6,27.0,99,94,81,29.93,29.70,1,0,4,0.18
2013-3-6,43.1,40.7,38.9,42.0,40.2,38.0,99,98,95,29.93,29.59,4,0,6,0.32
2013-3-7,54.9,43.1,31.6,44.0,38.6,31.0,99,86,47,30.08,29.93,4,0,9,0.03
2013-3-8,51.3,40.0,30.2,42.0,37.5,30.0,99,91,69,30.25,30.08,6,0,11,0.00
2013-3-9,57.5,39.1,28.0,44.0,34.3,28.0,99,85,49,30.52,30.26,4,0,5,0.00
2013-3-10,44.5,37.7,28.5,44.0,37.0,28.0,98,97,94,30.53,30.44,0,0,0,0.06
2013-3-11,52.0,46.2,42.1,48.0,45.0,42.0,99,95,82,30.46,30.23,0,0,8,0.03
2013-3-12,53.3,49.6,47.7,51.0,48.4,47.0,98,95,86,30.22,30.14,4,0,9,0.08
2013-3-13,54.2,49.4,46.3,53.0,48.4,46.0,99,96,88,30.22,30.10,2,0,4,0.06
2013-3-14,56.5,49.2,46.3,52.0,46.9,44.0,99,92,74,30.19,30.06,2,0,8,0.01
2013-3-15,60.2,52.0,44.2,50.0,47.2,43.0,97,84,63,30.23,30.17,4,0,8,0.00
2013-3-16,50.3,43.7,36.7,46.0,41.8,35.0,98,93,76,30.18,30.00,6,1,12,0.20
2013-3-17,46.6,38.0,31.2,41.0,36.0,31.0,99,92,75,30.29,30.08,5,0,11,0.15
2013-3-18,52.1,39.7,29.1,45.0,35.4,28.0,98,86,51,30.27,30.23,7,1,11,0.12
2013-3-19,47.8,38.3,28.5,44.0,36.2,28.0,98,93,69,30.22,29.65,2,0,4,0.32
2013-3-20,49.6,42.6,33.5,49.0,40.7,33.0,98,93,87,30.12,29.46,7,1,20,0.86
2013-3-21,46.1,36.6,30.8,40.0,34.3,30.0,99,92,59,30.29,30.12,10,1,20,0.12
2013-3-22,45.2,35.5,28.5,37.0,32.6,28.0,99,90,63,30.40,30.29,13,1,13,0.02
2013-3-23,50.2,36.2,28.0,37.0,30.5,26.0,99,83,42,30.42,30.31,3,0,5,0.00
2013-3-24,54.5,39.4,28.3,39.0,33.8,28.0,98,83,48,30.31,30.12,7,0,10,0.00
2013-3-25,59.5,44.5,30.9,45.0,37.1,30.0,98,78,45,30.13,29.94,6,0,10,0.00
2013-3-26,59.6,48.6,40.3,47.0,43.0,40.0,98,83,50,30.03,29.97,3,0,7,0.02
2013-3-27,63.7,52.0,44.8,50.0,45.6,40.0,99,82,44,30.00,29.92,2,0,5,0.01
2013-3-28,61.6,51.2,46.2,52.0,47.5,44.0,98,88,54,30.14,30.00,3,0,7,0.25
2013-3-29,64.7,52.2,44.8,51.0,46.1,43.0,99,82,46,30.25,30.15,4,0,7,0.03
2013-3-30,69.5,53.6,39.6,48.0,43.8,39.0,98,73,44,30.24,30.04,8,1,12,0.00
2013-3-31,74.2,55.6,37.9,49.0,44.4,37.0,98,70,33,30.04,29.90,4,0,8,0.00
2013-4-1,68.2,52.9,40.9,51.0,46.2,40.0,98,81,43,30.18,30.00,4,0,8,0.00
2013-4-2,58.9,51.5,45.9,50.0,47.1,44.0,97,86,70,30.21,30.16,3,0,8,0.00
2013-4-3,65.1,52.8,40.1,51.0,46.3,39.0,98,80,53,30.20,29.93,2,0,5,0.00
2013-4-4,56.7,50.9,47.2,54.0,49.5,46.0,98,95,84,29.93,29.67,7,0,11,0.31
2013-4-5,57.8,50.7,47.2,53.0,49.3,47.0,98,95,77,29.91,29.75,7,0,11,1.37
2013-4-6,54.0,46.7,42.8,48.0,44.9,42.0,99,93,76,29.97,29.75,7,1,12,1.01
2013-4-7,48.5,43.5,39.0,46.0,42.2,38.0,99,95,87,29.94,29.48,4,0,17,1.01
2013-4-8,53.6,44.8,38.5,47.0,41.1,38.0,99,88,63,30.31,29.95,8,1,11,0.00
2013-4-9,55.2,44.8,34.3,46.0,40.8,34.0,99,87,68,30.37,30.23,4,0,7,0.00
2013-4-10,53.2,49.2,44.6,51.0,44.7,40.0,97,85,73,30.32,30.03,10,1,15,0.25
2013-4-11,54.9,45.1,33.0,43.0,38.1,32.0,98,79,48,30.35,30.21,10,1,16,0.00
2013-4-12,49.0,39.8,30.0,45.0,37.9,29.0,98,93,74,30.21,29.79,6,0,16,0.22
2013-4-13,49.2,40.5,34.0,44.0,37.9,33.0,98,90,70,30.06,29.89,8,1,19,0.20
2013-4-14,47.1,40.1,35.6,44.0,38.6,35.0,99,94,76,30.07,29.97,1,0,11,0.61
2013-4-15,55.5,41.8,32.0,44.0,36.3,32.0,99,83,44,30.20,29.97,5,1,13,0.27
2013-4-16,56.5,43.0,32.6,44.0,36.1,32.0,99,80,43,30.42,30.20,6,0,13,0.01
2013-4-17,58.0,42.9,28.9,44.0,36.7,28.0,99,81,51,30.50,30.42,6,0,12,0.00
2013-4-18,52.6,46.3,40.7,48.0,43.4,39.0,98,90,72,30.49,30.29,1,0,9,0.08
2013-4-19,54.7,49.5,46.8,52.0,47.7,46.0,98,93,75,30.28,30.11,9,1,15,0.28
2013-4-20,55.6,47.9,40.4,50.0,44.7,40.0,98,89,71,30.33,30.27,9,1,12,0.02
2013-4-21,55.1,46.3,40.3,48.0,42.1,39.0,98,87,58,30.36,30.25,12,1,14,0.04
2013-4-22,61.8,47.3,36.0,44.0,36.0,28.0,98,71,32,30.50,30.36,9,1,12,0.00
2013-4-23,64.6,47.7,28.0,38.0,29.5,23.0,98,57,25,30.43,30.22,4,0,12,0.00
2013-4-24,70.6,52.2,31.2,42.0,34.5,28.0,97,58,21,30.33,30.07,6,1,12,0.00
2013-4-25,74.0,53.3,34.4,47.0,40.5,34.0,98,67,33,30.19,30.06,8,1,13,0.00
2013-4-26,75.8,53.7,36.7,50.0,40.2,32.0,98,69,21,30.27,30.19,3,0,7,0.00
2013-4-27,59.2,48.5,36.6,50.0,43.6,36.0,98,85,57,30.27,30.22,0,0,6,0.03
2013-4-28,60.7,51.1,46.1,49.0,45.0,40.0,98,82,50,30.25,30.03,9,0,12,0.15
2013-4-29,54.0,46.0,35.7,48.0,37.8,31.0,97,75,42,30.23,30.02,19,3,23,0.09
2013-4-30,56.0,43.6,32.2,39.0,33.2,30.0,98,71,41,30.48,30.23,8,1,16,0.00
2013-5-1,65.1,46.4,26.4,38.0,31.0,26.0,98,62,29,30.57,30.49,9,1,11,0.00
2013-5-2,72.6,55.7,38.8,43.0,36.5,30.0,84,52,29,30.53,30.32,10,1,12,0.00
2013-5-3,74.2,59.3,47.1,47.0,40.4,36.0,72,52,28,30.37,30.20,10,2,19,0.00
2013-5-4,79.7,64.1,45.8,50.0,42.2,34.0,88,50,24,30.20,29.96,8,1,17,0.00
2013-5-5,85.3,65.9,42.2,46.0,41.4,37.0,92,47,18,29.97,29.73,8,0,15,0.00
2013-5-6,85.1,62.0,41.3,54.0,46.2,40.0,97,63,25,29.86,29.77,8,1,12,0.00
2013-5-7,71.4,57.0,45.0,54.0,49.6,44.0,97,79,53,30.05,29.86,6,0,11,0.00
2013-5-8,71.4,56.9,47.9,55.0,50.2,47.0,96,80,52,30.16,30.05,2,0,12,0.00
2013-5-9,76.0,57.9,43.1,55.0,49.3,42.0,98,77,40,30.23,30.10,8,0,12,0.00
2013-5-10,82.2,62.7,42.6,58.0,51.0,42.0,98,70,35,30.21,30.10,6,0,7,0.00
2013-5-11,84.8,65.4,51.1,58.0,53.9,49.0,92,70,38,30.20,30.01,4,0,10,0.00
2013-5-12,73.8,63.4,56.5,59.0,55.9,48.0,96,78,40,30.10,30.03,5,0,8,0.02
2013-5-13,63.0,55.1,38.5,57.0,50.4,37.0,98,85,55,30.23,29.99,6,0,18,0.06
2013-5-14,65.4,51.1,37.5,46.0,41.2,37.0,98,73,41,30.25,30.13,5,0,8,0.00
2013-5-15,59.0,49.2,37.1,52.0,45.8,36.0,98,88,68,30.14,30.03,1,0,4,0.03
2013-5-16,70.5,56.4,46.0,56.0,50.3,45.0,98,82,42,30.03,29.90,5,0,15,0.07
2013-5-17,64.5,53.4,44.1,54.0,49.5,43.0,98,88,52,30.10,29.98,3,0,5,0.27
2013-5-18,58.4,52.0,44.7,52.0,49.1,44.0,98,90,72,30.30,30.10,0,0,3,0.04
2013-5-19,64.9,54.3,42.8,51.0,46.9,41.0,97,78,48,30.42,30.30,7,1,9,0.02
2013-5-20,69.8,53.3,40.3,50.0,46.0,39.0,98,79,47,30.38,29.94,10,1,12,0.02
2013-5-21,53.4,47.1,42.5,50.0,43.9,40.0,97,89,71,29.95,29.83,8,1,18,0.38
2013-5-22,48.5,43.4,36.0,47.0,42.3,36.0,98,95,92,29.96,29.90,0,0,5,0.53
2013-5-23,49.0,44.7,35.8,48.0,44.1,35.0,98,98,97,30.01,29.96,0,0,5,1.07
2013-5-24,59.1,50.1,42.0,52.0,47.4,42.0,99,90,72,30.09,29.98,4,0,8,0.11
2013-5-25,61.5,52.2,43.5,52.0,47.7,43.0,98,86,59,30.08,29.97,5,0,8,0.01
2013-5-26,64.7,55.3,48.8,55.0,50.8,48.0,98,86,63,30.01,29.96,4,0,10,0.09
2013-5-27,61.9,53.5,48.6,58.0,51.5,48.0,98,93,75,29.98,29.72,3,0,9,0.39
2013-5-28,64.7,54.8,49.2,54.0,49.3,47.0,97,83,60,29.91,29.77,5,0,11,0.02
2013-5-29,59.6,52.5,48.2,53.0,48.8,46.0,98,88,66,30.04,29.67,6,0,15,0.57
2013-5-30,61.8,52.1,43.6,54.0,47.6,43.0,98,86,60,30.27,30.04,4,0,9,0.15
2013-5-31,64.9,53.9,42.7,50.0,45.8,42.0,98,77,49,30.35,30.25,4,0,9,0.00
2013-6-1,73.8,59.1,45.2,54.0,49.4,44.0,97,73,41,30.26,30.04,7,0,10,0.00
2013-6-2,69.6,58.2,47.6,53.0,49.5,46.0,96,75,49,30.11,30.05,7,1,11,0.00
2013-6-3,73.0,55.9,40.8,55.0,47.7,40.0,98,77,44,30.15,30.06,7,1,10,0.00
2013-6-4,81.0,61.4,39.4,56.0,48.9,39.0,98,69,35,30.14,30.01,7,1,13,0.00
2013-6-5,78.6,62.3,45.1,60.0,53.0,44.0,97,74,52,30.10,30.02,7,1,12,0.00
2013-6-6,80.6,60.9,46.0,59.0,50.5,44.0,98,72,34,30.08,30.01,6,1,15,0.00
2013-6-7,71.5,55.5,42.9,57.0,48.5,42.0,97,79,50,30.19,30.07,7,1,11,0.00
2013-6-8,74.0,57.2,40.0,53.0,47.2,39.0,97,73,43,30.21,30.10,6,1,12,0.00
2013-6-9,69.7,55.9,44.1,51.0,46.0,43.0,97,73,42,30.13,30.04,12,2,13,0.00
2013-6-10,66.6,51.7,35.9,49.0,43.4,35.0,98,76,45,30.06,29.93,7,1,15,0.00
2013-6-11,61.3,52.9,47.1,54.0,47.8,44.0,94,83,60,30.15,30.00,7,1,9,0.46
2013-6-12,62.4,52.7,44.1,55.0,48.9,43.0,98,88,61,30.18,30.14,2,0,7,0.16
2013-6-13,65.9,54.8,48.1,57.0,49.6,47.0,98,84,57,30.29,30.16,12,1,12,0.13
2013-6-14,64.9,55.6,47.1,54.0,49.7,46.0,96,82,62,30.29,30.04,7,0,8,0.00
2013-6-15,78.7,61.3,43.6,57.0,51.4,43.0,98,73,45,30.04,29.92,6,1,9,0.00
2013-6-16,71.2,58.6,45.6,58.0,52.4,45.0,98,81,60,30.11,30.02,4,0,8,0.00
2013-6-17,77.0,60.6,52.0,56.0,53.1,50.0,97,79,41,30.12,29.94,7,0,12,0.11
2013-6-18,68.3,55.9,46.8,57.0,49.9,46.0,98,82,52,30.00,29.94,9,0,13,0.01
2013-6-19,66.3,56.1,47.2,55.0,49.5,46.0,98,80,54,30.07,29.95,7,1,13,0.04
2013-6-20,61.3,54.4,47.5,55.0,50.1,46.0,98,86,67,30.16,30.04,9,1,14,0.10
2013-6-21,67.2,56.7,50.4,59.0,53.1,50.0,98,88,64,30.19,30.14,5,0,8,0.06
2013-6-22,79.9,61.9,44.6,58.0,51.5,44.0,98,74,34,30.14,29.85,6,0,7,0.00
2013-6-23,69.6,61.7,56.8,63.0,58.9,56.0,98,91,73,29.85,29.63,4,0,4,0.37
2013-6-24,67.7,59.3,54.1,58.0,56.1,53.0,98,90,67,29.70,29.60,2,0,7,0.39
2013-6-25,70.2,59.6,53.7,62.0,57.0,53.0,98,91,63,29.86,29.67,3,0,7,0.31
2013-6-26,68.8,61.4,55.6,63.0,58.6,55.0,99,91,73,30.06,29.85,4,0,7,0.05
2013-6-27,73.4,63.4,57.8,66.0,61.2,57.0,98,92,73,30.19,30.03,1,0,4,0.26
2013-6-28,89.7,71.6,59.8,69.0,63.1,59.0,98,78,43,30.18,30.04,4,1,11,0.00
2013-6-29,87.5,71.5,57.6,64.0,60.6,57.0,97,72,44,30.11,29.98,4,0,8,0.00
2013-6-30,92.6,74.0,55.3,69.0,62.8,55.0,98,72,41,30.00,29.84,7,1,11,0.00
2013-7-1,89.6,71.5,57.8,70.0,62.6,57.0,97,75,48,30.04,29.92,5,1,12,0.00
2013-7-2,82.2,66.8,53.2,64.0,57.8,52.0,97,75,48,30.11,30.04,9,1,13,0.00
2013-7-3,78.5,62.6,47.8,58.0,52.5,47.0,98,73,41,30.17,30.06,7,1,11,0.00
2013-7-4,70.5,59.8,48.8,54.0,51.5,48.0,96,76,54,30.15,30.07,11,1,12,0.00
2013-7-5,73.0,60.2,50.0,57.0,52.7,48.0,95,78,51,30.07,29.96,4,0,9,0.00
2013-7-6,78.0,57.9,46.0,59.0,51.9,45.0,98,83,47,30.00,29.87,7,1,12,0.00
2013-7-7,73.8,59.9,48.1,60.0,53.9,47.0,98,82,57,30.00,29.91,6,1,9,0.00
2013-7-8,77.6,60.3,48.5,62.0,54.6,48.0,97,83,57,30.11,30.00,4,0,9,0.00
2013-7-9,85.9,68.0,51.9,62.0,57.2,51.0,97,72,41,30.10,30.00,10,1,14,0.00
2013-7-10,73.5,59.9,47.8,54.0,49.6,46.0,97,72,42,30.09,29.98,8,2,13,0.00
2013-7-11,72.0,58.2,46.5,51.0,47.7,45.0,95,71,44,30.08,30.00,6,1,13,0.00
2013-7-12,70.1,55.1,41.6,53.0,47.5,41.0,98,78,49,30.13,30.02,8,1,11,0.00
2013-7-13,77.2,59.0,38.2,53.0,46.4,37.0,98,69,29,30.21,30.09,7,1,13,0.00
2013-7-14,82.0,65.1,47.1,53.0,47.9,42.0,94,58,28,30.13,30.00,10,2,15,0.00
2013-7-15,81.9,63.0,42.7,56.0,47.6,42.0,98,64,25,30.05,29.86,13,1,16,0.00
2013-7-16,85.3,70.7,51.5,61.0,53.5,46.0,86,56,38,29.93,29.79,6,1,11,0.00
2013-7-17,72.4,62.1,52.8,58.0,55.3,51.0,94,79,58,30.20,29.93,5,0,9,0.00
2013-7-18,77.1,59.9,43.2,61.0,53.6,42.0,98,81,56,30.25,30.11,6,1,11,0.00
2013-7-19,78.9,61.9,47.1,62.0,55.0,46.0,97,80,55,30.18,30.04,7,1,16,0.00
2013-7-20,77.4,60.0,49.1,61.0,53.8,48.0,97,82,52,30.11,29.98,7,1,14,0.00
2013-7-21,77.0,60.9,48.6,60.0,54.6,48.0,97,81,54,30.00,29.93,7,1,10,0.00
2013-7-22,75.1,61.8,50.4,62.0,55.8,49.0,97,82,63,30.07,29.98,8,1,10,0.00
2013-7-23,86.1,64.6,53.0,63.0,56.4,52.0,98,79,36,30.07,29.95,7,1,13,0.00
2013-7-24,85.3,65.3,49.6,62.0,55.4,49.0,97,74,42,30.08,29.98,8,1,11,0.00
2013-7-25,85.3,64.6,47.9,58.0,52.0,47.0,97,69,32,30.12,30.03,9,1,13,0.00
2013-7-26,83.0,63.6,45.3,58.0,49.7,42.0,98,66,27,30.16,30.08,11,2,16,0.00
2013-7-27,76.3,60.5,45.1,55.0,49.2,44.0,96,70,37,30.19,30.03,5,1,12,0.00
2013-7-28,67.2,56.4,43.0,55.0,50.2,42.0,98,81,64,30.06,30.00,6,0,8,0.00
2013-7-29,77.4,62.6,54.5,59.0,53.8,51.0,91,74,49,30.04,29.94,5,1,9,0.00
2013-7-30,78.0,61.6,51.5,60.0,55.1,50.0,96,81,51,30.16,30.04,6,0,10,0.00
2013-7-31,74.5,61.2,51.7,62.0,55.8,51.0,97,83,59,30.14,30.01,4,0,9,0.00
2013-8-1,66.6,59.8,54.6,57.0,54.7,53.0,94,84,69,30.10,30.06,2,0,5,0.00
2013-8-2,66.5,59.3,49.7,60.0,55.4,49.0,97,87,72,30.14,30.09,6,0,7,0.00
2013-8-3,73.3,64.1,56.3,60.0,57.2,54.0,95,79,61,30.12,30.04,8,1,12,0.00
2013-8-4,84.8,68.7,56.5,63.0,59.0,55.0,95,74,44,30.05,29.92,6,1,12,0.00
2013-8-5,85.4,65.7,51.5,62.0,56.3,51.0,98,75,44,30.02,29.93,10,1,12,0.00
2013-8-6,87.6,65.8,46.5,60.0,53.4,46.0,97,70,35,30.02,29.91,6,1,11,0.00
2013-8-7,85.4,64.8,51.7,60.0,55.1,51.0,98,75,39,30.04,29.95,9,1,13,0.00
2013-8-8,80.9,64.4,54.3,64.0,57.1,52.0,95,79,52,30.05,29.93,6,1,13,0.00
2013-8-9,79.5,63.4,49.7,62.0,56.6,49.0,98,80,50,29.96,29.86,6,0,10,0.02
2013-8-10,75.8,64.1,56.9,64.0,59.3,54.0,98,86,63,30.04,29.89,6,0,9,0.06
2013-8-11,71.1,61.4,54.3,60.0,55.7,52.0,94,82,64,30.08,30.01,4,0,8,0.00
2013-8-12,75.3,63.3,53.2,57.0,54.7,51.0,94,75,52,30.09,30.02,5,0,10,0.00
2013-8-13,82.7,63.0,44.7,57.0,51.7,44.0,98,72,34,30.12,29.92,9,0,10,0.00
2013-8-14,81.6,62.3,49.6,62.0,56.0,49.0,98,83,40,29.96,29.92,4,0,8,0.10
2013-8-15,69.2,63.7,59.2,66.0,62.6,59.0,98,96,88,29.99,29.93,3,0,6,0.14
2013-8-16,86.4,68.5,58.5,66.0,60.3,55.0,99,79,38,30.04,29.95,6,0,9,0.00
2013-8-17,77.3,64.4,52.8,62.0,57.8,52.0,98,81,50,30.09,30.03,5,0,9,0.00
2013-8-18,75.9,63.3,50.9,61.0,56.5,50.0,98,80,57,30.14,30.07,5,1,12,0.00
2013-8-19,78.5,62.5,48.4,60.0,54.6,48.0,98,78,46,30.12,30.07,9,1,13,0.00
2013-8-20,77.9,62.3,45.5,55.0,50.3,45.0,98,70,32,30.16,30.04,11,2,15,0.00
2013-8-21,83.2,68.0,55.0,54.0,50.1,48.0,77,55,33,30.06,29.90,11,2,12,0.00
2013-8-22,81.8,68.4,53.2,63.0,55.8,50.0,90,66,45,29.92,29.82,6,0,8,0.00
2013-8-23,75.7,64.7,57.2,59.0,56.7,55.0,95,77,52,29.92,29.87,5,0,7,0.00
2013-8-24,72.6,62.9,53.3,60.0,56.1,51.0,97,80,51,29.93,29.86,5,0,10,0.09
2013-8-25,66.5,57.6,45.9,60.0,53.8,45.0,98,88,68,29.95,29.89,3,0,8,0.00
2013-8-26,74.3,63.0,58.2,61.0,57.8,53.0,98,84,52,29.96,29.88,3,0,11,0.04
2013-8-27,79.1,66.2,57.3,63.0,59.9,57.0,98,82,53,29.96,29.80,4,0,7,0.01
2013-8-28,78.9,68.0,61.0,65.0,62.1,60.0,98,83,53,29.91,29.83,5,0,6,0.13
2013-8-29,72.8,65.1,60.3,70.0,63.8,60.0,98,95,81,30.05,29.84,5,0,8,0.91
2013-8-30,76.8,65.9,57.6,62.0,58.6,54.0,99,80,48,30.15,30.06,7,0,10,0.00
2013-8-31,82.6,64.9,48.9,61.0,56.8,48.0,99,78,46,30.07,29.83,9,1,11,0.00
2013-9-1,83.0,64.5,51.6,62.0,55.8,51.0,99,77,38,29.90,29.80,4,0,9,0.00
2013-9-2,79.6,66.0,54.7,61.0,57.8,54.0,97,77,48,29.94,29.87,5,1,8,0.00
2013-9-3,74.1,63.6,57.7,64.0,59.6,56.0,98,88,63,30.01,29.93,5,0,7,0.34
2013-9-4,71.1,62.3,54.8,63.0,59.1,54.0,98,90,72,30.06,29.99,5,0,7,0.03
2013-9-5,67.3,61.6,58.3,62.0,60.0,58.0,98,94,83,30.04,29.96,4,0,9,2.08
2013-9-6,66.1,61.2,58.4,64.0,60.2,58.0,99,96,88,30.12,29.96,2,0,4,1.48
2013-9-7,74.8,62.9,55.1,62.0,58.6,55.0,99,87,62,30.12,30.00,6,0,10,0.00
2013-9-8,79.9,65.6,57.3,64.0,59.6,56.0,98,83,48,30.11,30.01,5,1,11,0.00
2013-9-9,77.3,64.5,57.4,66.0,60.4,57.0,98,87,64,30.06,29.95,7,1,12,0.00
2013-9-10,80.5,66.7,58.0,66.0,60.9,57.0,97,83,59,29.97,29.84,6,1,12,0.00
2013-9-11,89.8,71.5,53.9,67.0,62.0,53.0,98,75,44,29.92,29.85,7,1,8,0.00
2013-9-12,81.3,70.7,56.8,67.0,62.4,56.0,96,77,58,29.96,29.90,5,1,9,0.00
2013-9-13,69.9,61.3,56.0,62.0,58.8,55.0,98,92,76,29.98,29.87,3,0,8,0.00
2013-9-14,70.2,63.2,57.2,63.0,60.1,56.0,97,90,76,29.88,29.73,5,0,8,0.00
2013-9-15,65.5,60.9,55.4,63.0,59.7,55.0,98,96,90,29.85,29.72,0,0,3,0.06
2013-9-16,67.6,60.0,51.5,63.0,57.9,51.0,97,93,79,29.95,29.85,3,0,7,0.16
2013-9-17,67.6,55.1,47.1,56.0,51.7,47.0,99,89,61,29.98,29.87,5,0,10,0.04
2013-9-18,68.1,54.8,44.5,56.0,49.7,44.0,99,85,52,30.09,29.99,4,0,7,0.00
2013-9-19,79.7,56.2,40.1,57.0,48.4,40.0,99,80,39,30.04,29.78,2,0,6,0.00
2013-9-20,70.3,54.8,43.2,58.0,51.3,43.0,99,90,53,29.79,29.62,3,0,7,0.07
2013-9-21,69.5,56.5,50.8,59.0,54.7,50.0,99,94,62,29.75,29.67,4,0,7,0.71
2013-9-22,59.0,54.3,52.6,58.0,53.7,52.0,99,97,91,29.80,29.60,4,0,17,0.53
2013-9-23,59.7,54.0,46.4,57.0,52.8,46.0,99,96,85,30.00,29.81,4,0,9,0.15
2013-9-24,60.2,50.8,46.4,54.0,49.6,46.0,99,96,68,29.99,29.85,4,0,9,0.35
2013-9-25,55.7,50.0,43.9,52.0,48.7,43.0,99,95,82,30.05,29.86,4,0,7,0.08
2013-9-26,63.7,50.2,41.9,53.0,47.0,42.0,99,90,61,30.17,30.05,3,0,7,0.00
2013-9-27,53.2,49.8,43.1,53.0,49.5,43.0,99,98,97,30.16,29.89,7,0,9,0.54
2013-9-28,58.7,54.4,50.0,58.0,54.0,50.0,99,98,93,29.89,29.43,10,1,17,2.59
2013-9-29,52.9,51.2,46.7,53.0,50.8,46.0,99,98,95,29.62,29.24,4,0,16,1.73
2013-9-30,56.4,49.8,45.9,53.0,49.0,45.0,99,97,84,29.97,29.52,4,0,7,1.17
2013-10-1,56.9,49.4,46.5,51.0,47.8,46.0,99,94,73,30.18,29.95,4,0,9,0.26
2013-10-2,53.3,47.5,44.0,51.0,46.8,44.0,99,97,87,30.19,30.07,3,0,6,0.30
2013-10-3,56.9,47.7,38.3,49.0,45.4,38.0,99,92,67,30.45,30.19,2,0,9,0.00
2013-10-4,67.8,46.5,32.3,54.0,42.9,32.0,99,89,47,30.49,30.37,3,0,6,0.01
2013-10-5,68.1,49.2,34.9,54.0,44.7,35.0,99,86,55,30.38,30.15,2,0,7,0.00
2013-10-6,72.5,52.4,36.2,51.0,45.0,36.0,99,80,39,30.14,29.94,3,0,11,0.00
2013-10-7,58.2,51.8,48.8,53.0,49.5,47.0,98,92,76,30.11,29.95,4,0,9,0.16
2013-10-8,55.2,46.7,37.2,51.0,45.5,37.0,98,96,74,30.11,29.98,5,0,11,0.38
2013-10-9,57.5,43.9,35.5,49.0,41.9,35.0,99,93,67,30.16,29.99,3,0,6,0.01
2013-10-10,55.8,47.8,41.7,52.0,46.7,41.0,99,96,87,30.09,29.97,1,0,4,0.08
2013-10-11,54.2,48.6,44.2,51.0,47.7,44.0,99,96,87,30.15,30.08,0,0,0,0.00
2013-10-12,53.4,46.9,42.8,49.0,45.4,42.0,99,95,79,30.21,30.08,5,0,6,0.14
2013-10-13,58.2,45.9,37.0,50.0,43.8,37.0,99,93,69,30.36,30.21,4,0,13,0.01
2013-10-14,59.2,44.1,35.7,50.0,41.8,35.0,99,92,68,30.42,30.35,5,0,10,0.00
2013-10-15,63.0,44.3,32.0,50.0,40.5,32.0,99,88,56,30.39,30.18,2,0,6,0.01
2013-10-16,52.8,45.3,36.7,50.0,44.2,36.0,99,96,87,30.21,30.15,4,0,7,0.00
2013-10-17,57.8,47.4,39.5,51.0,45.9,39.0,99,95,77,30.27,30.21,5,0,7,0.00
2013-10-18,56.7,44.5,36.4,52.0,43.4,36.0,99,96,82,30.24,30.15,3,0,9,0.00
2013-10-19,51.4,44.4,38.2,49.0,43.9,38.0,99,98,90,30.19,30.15,3,0,7,0.01
2013-10-20,47.6,44.9,42.4,47.0,44.6,42.0,99,99,96,30.20,30.14,4,0,7,0.01
2013-10-21,53.0,46.1,42.9,50.0,45.4,43.0,99,97,88,30.16,30.07,6,1,9,0.00
2013-10-22,62.8,48.8,41.4,55.0,47.2,41.0,99,95,73,30.11,30.01,6,0,7,0.00
2013-10-23,59.1,45.4,38.7,53.0,44.3,38.0,99,96,79,30.05,29.98,4,0,7,0.01
2013-10-24,57.0,47.9,43.4,53.0,47.4,43.0,99,97,87,30.14,30.03,3,0,5,0.01
2013-10-25,56.5,50.5,47.7,52.0,48.7,46.0,99,93,80,30.30,30.14,3,0,5,0.02
2013-10-26,51.5,48.2,44.2,47.0,45.9,43.0,98,91,83,30.32,30.19,6,1,10,0.00
2013-10-27,54.2,46.8,38.7,49.0,44.8,38.0,99,93,77,30.20,29.90,5,0,12,0.10
2013-10-28,57.7,47.0,35.3,44.0,38.7,33.0,98,75,46,29.95,29.86,3,0,12,0.00
2013-10-29,61.1,38.2,27.0,42.0,33.4,26.0,99,86,42,30.07,29.95,1,0,4,0.00
2013-10-30,55.2,40.8,27.9,45.0,37.6,27.0,99,89,68,30.18,30.07,2,0,4,0.04
2013-10-31,56.3,49.5,45.4,52.0,48.0,44.0,98,94,85,30.28,30.15,2,0,6,0.05
2013-11-1,61.7,50.2,45.8,52.0,48.3,46.0,99,93,67,30.30,29.88,0,0,9,0.05
2013-11-2,54.0,47.0,37.4,50.0,44.5,37.0,98,91,64,30.00,29.62,10,1,23,0.51
2013-11-3,49.3,40.2,30.3,43.0,37.9,30.0,99,92,70,30.14,29.99,6,1,11,0.03
2013-11-4,48.0,41.2,31.2,45.0,40.2,31.0,99,96,86,30.19,30.07,0,0,2,0.17
2013-11-5,51.9,46.7,40.4,50.0,46.0,40.0,99,97,88,30.27,30.06,3,0,7,0.08
2013-11-6,51.2,45.0,38.8,49.0,44.4,39.0,99,97,88,30.33,30.06,0,0,3,0.29
2013-11-7,51.8,48.1,44.8,52.0,47.6,44.0,99,98,93,30.09,29.80,6,0,13,1.01
2013-11-8,51.7,44.8,37.9,49.0,44.3,38.0,99,98,88,30.18,30.09,1,0,3,0.11
2013-11-9,43.5,39.8,33.9,43.0,39.6,34.0,99,99,98,30.15,30.08,3,0,4,0.02
2013-11-10,51.8,45.9,41.6,48.0,44.9,41.0,99,96,85,30.13,30.07,5,0,7,0.00
2013-11-11,56.8,46.7,41.3,51.0,45.4,41.0,99,95,77,30.17,30.02,2,0,5,0.00
2013-11-12,55.5,47.6,41.1,53.0,47.1,41.0,100,98,90,30.42,30.06,3,0,9,0.12
2013-11-13,51.2,45.9,39.5,51.0,45.6,39.0,100,99,98,30.48,30.33,0,0,0,0.02
2013-11-14,51.1,43.2,37.8,48.0,42.5,38.0,100,97,81,30.33,30.11,0,0,4,0.04
2013-11-15,46.0,42.2,36.7,45.0,41.8,37.0,99,98,91,30.11,29.48,8,0,17,0.28
2013-11-16,46.2,41.9,38.6,43.0,40.5,38.0,99,95,79,29.84,29.50,10,1,15,0.12
2013-11-17,48.2,44.8,39.4,48.0,44.6,39.0,99,99,98,29.95,29.84,4,0,11,0.51
2013-11-18,49.7,47.8,46.5,50.0,47.7,46.0,99,99,98,29.95,29.63,3,0,15,1.03
2013-11-19,50.1,42.6,30.8,50.0,40.7,30.0,99,93,79,30.05,29.65,9,1,16,0.19
2013-11-20,41.2,33.2,28.7,32.0,28.9,26.0,98,85,62,30.48,30.05,11,1,15,0.01
2013-11-21,42.2,31.3,24.4,31.0,26.6,23.0,97,84,56,30.64,30.49,6,0,9,0.00
2013-11-22,43.8,30.6,24.4,32.0,27.1,23.0,97,88,57,30.63,30.46,2,0,6,0.00
2013-11-23,45.0,30.0,22.0,37.0,28.0,21.0,99,93,68,30.45,30.22,2,0,3,0.01
2013-11-24,48.0,30.9,23.3,35.0,28.3,23.0,99,91,58,30.29,30.19,1,0,3,0.00
2013-11-25,50.1,32.7,25.1,37.0,29.6,25.0,99,89,58,30.36,30.29,1,0,2,0.00
2013-11-26,48.4,35.6,25.9,40.0,33.0,25.0,99,91,59,30.29,30.11,0,0,3,0.02
2013-11-27,52.7,38.6,30.1,45.0,37.2,30.0,99,95,74,30.10,29.97,0,0,2,0.00
2013-11-28,50.0,33.7,26.5,41.0,32.0,26.0,99,94,67,30.23,30.04,0,0,0,0.01
2013-11-29,43.9,36.7,28.4,41.0,35.7,28.0,99,96,89,30.36,30.23,0,0,0,0.00
2013-11-30,48.2,44.0,39.6,45.0,43.1,39.0,99,96,88,30.38,30.16,4,0,8,0.21
2013-12-1,52.7,48.9,43.3,52.0,48.3,39.0,99,97,85,30.15,29.89,13,1,19,0.97
2013-12-2,42.7,36.4,32.0,39.0,35.0,31.0,99,94,77,30.06,29.91,6,0,21,0.16
2013-12-3,37.6,31.4,23.8,33.0,29.2,23.0,99,91,72,30.32,30.06,6,1,9,0.00
2013-12-4,32.7,23.3,17.7,29.0,22.2,17.0,98,95,79,30.37,30.31,0,0,0,0.00
2013-12-5,29.6,21.1,12.9,27.0,19.8,12.0,97,94,84,30.34,30.18,0,0,1,0.00
2013-12-6,31.4,25.4,17.6,24.0,16.9,11.0,97,71,47,30.18,30.06,4,0,10,0.00
2013-12-7,27.6,16.9,7.6,12.0,8.6,6.0,92,72,39,30.46,30.18,3,0,6,0.00
2013-12-8,29.2,16.2,6.0,19.0,12.1,4.0,94,85,55,30.62,30.46,2,0,4,0.00
2013-12-9,27.3,22.3,10.6,25.0,19.4,9.0,95,88,81,30.62,30.53,0,0,4,0.00
2013-12-10,32.5,30.1,26.2,32.0,29.3,25.0,98,97,94,30.54,30.43,0,0,2,0.01
2013-12-11,34.2,31.1,27.6,34.0,30.6,27.0,99,98,98,30.43,30.20,0,0,1,0.00
2013-12-12,38.6,32.3,26.9,38.0,31.9,26.0,99,98,98,30.20,30.09,1,0,8,0.06
2013-12-13,46.6,41.4,38.5,45.0,40.9,38.0,99,98,94,30.45,30.20,2,0,7,0.01
2013-12-14,43.6,39.8,36.4,43.0,39.3,36.0,99,98,95,30.46,30.37,0,0,5,0.00
2013-12-15,47.2,42.0,39.4,46.0,41.3,39.0,99,97,92,30.49,30.39,2,0,5,0.02
2013-12-16,42.2,40.1,37.7,42.0,39.9,38.0,99,99,97,30.50,30.28,3,0,5,0.01
2013-12-17,39.6,37.6,35.5,39.0,37.3,35.0,99,99,97,30.28,30.17,0,0,3,0.02
2013-12-18,44.3,36.5,27.7,43.0,35.5,27.0,100,96,81,30.18,30.06,6,0,9,0.00
2013-12-19,36.3,30.3,26.4,32.0,28.2,26.0,99,92,70,30.36,30.16,4,0,7,0.00
2013-12-20,39.7,33.8,28.6,40.0,33.5,28.0,99,98,96,30.23,29.83,6,0,13,0.07
2013-12-21,46.5,41.9,36.8,46.0,41.8,37.0,100,99,98,30.20,29.92,3,0,3,0.06
2013-12-22,49.1,46.0,43.3,48.0,45.8,43.0,99,98,96,30.35,30.20,2,0,6,0.03
2013-12-23,48.8,44.0,31.4,49.0,43.4,31.0,99,97,89,30.55,30.24,5,0,16,0.39
2013-12-24,46.2,36.5,30.6,42.0,35.7,30.0,100,97,79,30.63,30.54,4,0,6,0.00
2013-12-25,36.4,33.7,31.4,36.0,33.6,31.0,99,99,98,30.53,30.42,1,0,4,0.01
2013-12-26,42.0,32.0,27.4,42.0,31.9,27.0,100,99,95,30.42,30.23,0,0,2,0.00
2013-12-27,38.9,34.2,27.6,39.0,34.2,27.0,100,99,99,30.41,30.18,0,0,2,0.02
2013-12-28,43.1,37.5,32.2,41.0,37.1,32.0,100,98,92,30.53,30.41,1,0,5,0.01
2013-12-29,40.7,36.4,34.7,39.0,36.2,35.0,99,99,94,30.49,30.33,0,0,4,0.00
2013-12-30,41.3,37.8,35.8,41.0,37.5,35.0,100,98,94,30.33,30.16,3,0,4,0.00
2013-12-31,45.1,41.7,38.6,44.0,41.2,38.0,99,98,95,30.39,30.23,0,0,2,0.04
2014-1-1,44.1,39.8,31.7,43.0,39.4,32.0,100,98,92,30.40,30.27,2,0,6,0.00
2014-1-2,48.5,43.0,38.9,43.0,40.8,39.0,99,92,75,30.26,29.99,3,0,10,0.13